createdAt,value
2018-07-13T00:01:53.370Z,95.00
2018-07-13T00:04:21.172Z,95.10
2018-07-13T00:06:48.987Z,95.10
2018-07-13T00:09:17.209Z,95.20
2018-07-13T00:14:22.696Z,94.20
2018-07-13T00:16:51.849Z,96.10
2018-07-13T00:19:20.405Z,95.00
2018-07-13T00:21:48.285Z,96.90
2018-07-13T00:24:16.084Z,96.80
2018-07-13T00:26:43.959Z,95.60
2018-07-13T00:29:12.015Z,94.80
2018-07-13T00:31:40.998Z,96.90
2018-07-13T00:34:08.957Z,96.70
2018-07-13T00:36:45.253Z,97.20
2018-07-13T00:39:15.609Z,96.80
2018-07-13T00:41:43.508Z,97.30
2018-07-13T00:44:11.865Z,97.20
2018-07-13T00:46:39.832Z,97.60
2018-07-13T00:49:07.685Z,97.70
2018-07-13T00:51:35.443Z,97.60
2018-07-13T00:54:03.257Z,97.80
2018-07-13T00:56:31.116Z,97.80
2018-07-13T00:58:59.350Z,97.50
2018-07-13T01:01:27.253Z,96.90
2018-07-13T01:03:55.149Z,97.90
2018-07-13T01:06:23.067Z,97.60
2018-07-13T01:08:50.910Z,98.10
2018-07-13T01:11:18.893Z,98.20
2018-07-13T01:13:46.738Z,98.10
2018-07-13T01:16:14.790Z,98.20
2018-07-13T01:18:43.847Z,98.50
2018-07-13T01:21:11.624Z,98.50
2018-07-13T01:23:39.482Z,98.40
2018-07-13T01:28:35.042Z,97.40
2018-07-13T01:31:02.909Z,98.40
2018-07-13T01:33:30.809Z,97.20
2018-07-13T01:35:58.618Z,98.60
2018-07-13T01:38:26.484Z,98.00
2018-07-13T01:43:22.165Z,97.80
2018-07-13T01:45:50.046Z,97.70
2018-07-13T01:48:18.445Z,98.20
2018-07-13T01:50:46.256Z,98.00
2018-07-13T01:53:14.069Z,98.60
2018-07-13T01:55:42.086Z,97.20
2018-07-13T01:58:09.872Z,98.50
2018-07-13T02:03:05.778Z,99.30
2018-07-13T02:05:33.661Z,98.60
2018-07-13T02:08:01.536Z,98.90
2018-07-13T02:10:29.354Z,98.90
2018-07-13T02:12:57.211Z,98.80
2018-07-13T02:15:25.093Z,99.50
2018-07-13T02:20:20.761Z,99.80
2018-07-13T02:22:48.626Z,99.80
2018-07-13T02:25:16.527Z,99.60
2018-07-13T02:27:44.381Z,99.90
2018-07-13T02:30:12.188Z,99.90
2018-07-13T02:32:40.086Z,99.60
2018-07-13T02:37:35.817Z,99.80
2018-07-13T02:40:03.874Z,99.90
2018-07-13T02:42:31.748Z,99.90
2018-07-13T02:44:59.590Z,99.90
2018-07-13T02:47:27.469Z,99.90
2018-07-13T02:49:55.330Z,99.90
2018-07-13T02:52:23.205Z,99.90
2018-07-13T02:54:51.057Z,99.90
2018-07-13T02:59:46.777Z,99.90
2018-07-13T03:02:14.585Z,99.90
2018-07-13T03:04:42.386Z,99.90
2018-07-13T03:07:10.153Z,99.90
2018-07-13T03:09:37.922Z,99.90
2018-07-13T03:12:05.795Z,99.90
2018-07-13T03:14:33.647Z,99.90
2018-07-13T03:17:01.469Z,99.90
2018-07-13T03:21:57.166Z,99.90
2018-07-13T03:24:24.949Z,99.90
2018-07-13T03:26:52.854Z,99.90
2018-07-13T03:29:20.777Z,99.90
2018-07-13T03:31:48.642Z,99.90
2018-07-13T03:34:16.543Z,99.90
2018-07-13T03:36:44.268Z,99.90
2018-07-13T03:39:12.085Z,99.90
2018-07-13T03:41:39.941Z,99.90
2018-07-13T03:44:07.791Z,99.90
2018-07-13T03:46:35.611Z,99.90
2018-07-13T03:49:03.522Z,99.50
2018-07-13T03:53:59.249Z,99.90
2018-07-13T03:56:27.185Z,99.90
2018-07-13T03:58:55.069Z,99.90
2018-07-13T04:01:22.913Z,99.90
2018-07-13T04:03:50.804Z,99.90
2018-07-13T04:08:46.361Z,99.90
2018-07-13T04:11:14.291Z,99.90
2018-07-13T04:13:42.151Z,99.90
2018-07-13T04:16:10.056Z,99.90
2018-07-13T04:18:37.956Z,99.90
2018-07-13T04:21:06.013Z,99.90
2018-07-13T04:23:33.897Z,99.70
2018-07-13T04:26:01.763Z,99.90
2018-07-13T04:28:29.697Z,99.90
2018-07-13T04:30:57.585Z,99.90
2018-07-13T04:33:25.389Z,99.90
2018-07-13T04:35:53.266Z,99.90
2018-07-13T04:38:21.151Z,99.90
2018-07-13T04:40:49.090Z,99.90
2018-07-13T04:43:16.937Z,99.80
2018-07-13T04:45:44.830Z,99.90
2018-07-13T04:48:12.776Z,99.90
2018-07-13T04:50:40.632Z,99.40
2018-07-13T04:53:08.570Z,99.70
2018-07-13T04:55:36.579Z,99.80
2018-07-13T04:58:04.493Z,99.80
2018-07-13T05:00:32.474Z,99.70
2018-07-13T05:03:00.392Z,99.40
2018-07-13T05:05:28.320Z,99.30
2018-07-13T05:07:56.273Z,98.90
2018-07-13T05:10:24.150Z,98.90
2018-07-13T05:12:52.090Z,98.60
2018-07-13T05:17:48.728Z,98.20
2018-07-13T05:20:16.609Z,98.20
2018-07-13T05:22:44.588Z,97.80
2018-07-13T05:25:12.669Z,97.40
2018-07-13T05:27:40.801Z,96.80
2018-07-13T05:30:08.694Z,97.10
2018-07-13T05:32:36.809Z,96.80
2018-07-13T05:37:32.731Z,96.60
2018-07-13T05:42:30.118Z,95.70
2018-07-13T05:44:58.102Z,96.60
2018-07-13T05:47:26.160Z,95.40
2018-07-13T05:49:54.089Z,95.90
2018-07-13T05:52:22.041Z,95.20
2018-07-13T05:54:50.008Z,94.80
2018-07-13T05:59:45.860Z,94.10
2018-07-13T06:04:41.733Z,93.20
2018-07-13T06:07:09.709Z,93.00
2018-07-13T06:09:37.683Z,92.80
2018-07-13T06:12:06.489Z,92.50
2018-07-13T06:14:34.380Z,92.40
2018-07-13T06:17:02.187Z,92.00
2018-07-13T06:19:30.038Z,91.50
2018-07-13T06:21:57.936Z,91.80
2018-07-13T06:24:25.853Z,91.40
2018-07-13T06:26:53.790Z,91.20
2018-07-13T06:29:21.818Z,90.50
2018-07-13T06:31:49.701Z,90.90
2018-07-13T06:34:17.688Z,90.30
2018-07-13T06:36:45.777Z,90.10
2018-07-13T06:39:13.770Z,89.20
2018-07-13T06:41:41.952Z,88.00
2018-07-13T06:44:09.784Z,86.90
2018-07-13T06:46:43.656Z,87.30
2018-07-13T06:49:11.581Z,86.30
2018-07-13T06:51:39.623Z,86.30
2018-07-13T06:54:08.201Z,86.90
2018-07-13T06:56:36.132Z,87.00
2018-07-13T06:59:19.052Z,86.30
2018-07-13T07:01:47.833Z,84.10
2018-07-13T07:04:38.258Z,81.60
2018-07-13T07:07:14.187Z,79.40
2018-07-13T07:09:59.953Z,81.80
2018-07-13T07:12:53.789Z,81.90
2018-07-13T07:15:22.758Z,81.30
2018-07-13T07:17:51.019Z,81.30
2018-07-13T07:20:18.901Z,82.40
2018-07-13T07:22:47.617Z,82.00
2018-07-13T07:25:15.964Z,82.40
2018-07-13T07:27:44.505Z,81.20
2018-07-13T07:30:12.635Z,80.50
2018-07-13T07:32:40.538Z,79.60
2018-07-13T07:35:08.862Z,80.30
2018-07-13T07:37:36.840Z,79.60
2018-07-13T07:40:05.077Z,78.90
2018-07-13T07:45:01.373Z,78.40
2018-07-13T07:47:29.265Z,79.40
2018-07-13T07:49:57.227Z,79.10
2018-07-13T07:52:25.097Z,77.40
2018-07-13T07:54:53.100Z,78.30
2018-07-13T07:57:20.990Z,77.90
2018-07-13T07:59:48.941Z,73.50
2018-07-13T08:02:16.910Z,73.30
2018-07-13T08:04:44.956Z,71.60
2018-07-13T08:07:13.081Z,72.80
2018-07-13T08:09:40.665Z,71.90
2018-07-13T08:12:08.641Z,71.40
2018-07-13T08:14:36.569Z,71.30
2018-07-13T08:17:04.417Z,70.90
2018-07-13T08:19:32.279Z,71.00
2018-07-13T08:22:08.415Z,72.40
2018-07-13T08:24:36.285Z,69.30
2018-07-13T08:27:04.742Z,68.10
2018-07-13T08:29:36.702Z,70.50
2018-07-13T08:32:04.897Z,69.00
2018-07-13T08:34:32.753Z,69.40
2018-07-13T08:37:00.622Z,68.20
2018-07-13T08:39:28.519Z,67.10
2018-07-13T08:41:56.456Z,66.30
2018-07-13T08:46:52.459Z,66.50
2018-07-13T08:49:20.362Z,66.70
2018-07-13T08:54:16.317Z,64.70
2018-07-13T08:59:12.245Z,64.60
2018-07-13T09:01:40.157Z,63.90
2018-07-13T09:06:36.529Z,63.70
2018-07-13T09:09:11.001Z,61.80
2018-07-13T09:11:39.125Z,61.10
2018-07-13T09:14:07.104Z,60.90
2018-07-13T09:16:35.150Z,62.30
2018-07-13T09:21:31.096Z,62.60
2018-07-13T09:23:59.429Z,61.20
2018-07-13T09:26:27.821Z,59.20
2018-07-13T09:28:55.992Z,58.60
2018-07-13T09:31:24.012Z,58.80
2018-07-13T09:33:52.133Z,58.60
2018-07-13T09:36:20.027Z,59.60
2018-07-13T09:38:48.084Z,57.20
2018-07-13T09:41:16.065Z,57.70
2018-07-13T09:43:44.049Z,57.80
2018-07-13T09:46:11.998Z,55.60
2018-07-13T09:48:39.997Z,56.80
2018-07-13T09:51:07.877Z,57.30
2018-07-13T09:53:36.405Z,56.10
2018-07-13T09:56:04.374Z,55.60
2018-07-13T09:58:37.366Z,55.40
2018-07-13T10:01:11.593Z,55.20
2018-07-13T10:03:39.489Z,53.70
2018-07-13T10:06:07.385Z,52.50
2018-07-13T10:08:35.528Z,50.00
2018-07-13T10:11:03.489Z,46.70
2018-07-13T10:13:31.522Z,45.10
2018-07-13T10:16:00.263Z,43.60
2018-07-13T10:18:28.257Z,45.20
2018-07-13T10:20:57.929Z,44.40
2018-07-13T10:23:26.366Z,45.20
2018-07-13T10:26:02.578Z,45.30
2018-07-13T10:28:31.727Z,44.00
2018-07-13T10:31:00.271Z,44.40
2018-07-13T10:33:28.219Z,43.60
2018-07-13T10:35:57.317Z,41.70
2018-07-13T10:38:25.258Z,38.60
2018-07-13T10:40:53.142Z,38.00
2018-07-13T10:43:21.022Z,36.60
2018-07-13T10:45:49.051Z,34.30
2018-07-13T10:48:17.534Z,33.60
2018-07-13T10:50:45.350Z,33.60
2018-07-13T10:53:13.437Z,33.30
2018-07-13T10:55:41.367Z,32.70
2018-07-13T10:58:09.228Z,31.40
2018-07-13T11:00:37.084Z,29.60
2018-07-13T11:03:04.905Z,30.10
2018-07-13T11:05:32.730Z,30.60
2018-07-13T11:08:00.648Z,30.20
2018-07-13T11:10:28.474Z,29.60
2018-07-13T11:12:56.327Z,28.90
2018-07-13T11:15:24.190Z,28.80
2018-07-13T11:17:52.089Z,28.90
2018-07-13T11:20:19.913Z,28.40
2018-07-13T11:22:47.854Z,28.80
2018-07-13T11:25:15.679Z,28.60
2018-07-13T11:27:43.572Z,29.50
2018-07-13T11:30:11.529Z,28.70
2018-07-13T11:32:39.325Z,28.50
2018-07-13T11:35:07.319Z,28.50
2018-07-13T11:37:37.219Z,28.30
2018-07-13T11:40:05.389Z,27.90
2018-07-13T11:45:01.117Z,26.70
2018-07-13T11:47:28.966Z,27.70
2018-07-13T11:49:56.873Z,26.70
2018-07-13T11:52:24.737Z,26.90
2018-07-13T11:54:52.665Z,27.20
2018-07-13T11:57:20.461Z,28.50
2018-07-13T11:59:48.303Z,26.70
2018-07-13T12:02:16.102Z,26.10
2018-07-13T12:04:43.917Z,26.20
2018-07-13T12:07:11.801Z,25.80
2018-07-13T12:09:39.586Z,25.70
2018-07-13T12:12:07.476Z,26.20
2018-07-13T12:14:35.345Z,27.30
2018-07-13T12:17:03.152Z,27.80
2018-07-13T12:19:30.968Z,26.20
2018-07-13T12:21:58.837Z,26.50
2018-07-13T12:24:26.687Z,26.60
2018-07-13T12:26:54.536Z,29.20
2018-07-13T12:29:22.377Z,28.30
2018-07-13T12:31:50.168Z,27.60
2018-07-13T12:34:18.016Z,27.20
2018-07-13T12:36:45.869Z,26.90
2018-07-13T12:39:13.751Z,28.00
2018-07-13T12:41:41.632Z,29.30
2018-07-13T12:44:09.530Z,28.80
2018-07-13T12:46:37.333Z,29.30
2018-07-13T12:49:05.228Z,28.00
2018-07-13T12:51:33.601Z,28.80
2018-07-13T12:54:01.558Z,28.80
2018-07-13T12:56:29.261Z,28.90
2018-07-13T12:58:57.052Z,30.00
2018-07-13T13:01:24.984Z,28.50
2018-07-13T13:03:52.793Z,27.70
2018-07-13T13:06:20.621Z,27.90
2018-07-13T13:08:48.377Z,27.90
2018-07-13T13:11:16.276Z,29.90
2018-07-13T13:13:44.156Z,30.00
2018-07-13T13:16:12.377Z,30.30
2018-07-13T13:18:40.181Z,31.30
2018-07-13T13:21:08.062Z,31.30
2018-07-13T13:23:35.920Z,31.60
2018-07-13T13:26:03.737Z,31.90
2018-07-13T13:28:31.521Z,31.60
2018-07-13T13:30:59.457Z,33.00
2018-07-13T13:33:27.330Z,32.50
2018-07-13T13:35:55.125Z,33.80
2018-07-13T13:38:23.025Z,33.00
2018-07-13T13:40:51.194Z,33.90
2018-07-13T13:43:19.041Z,33.40
2018-07-13T13:45:46.797Z,33.70
2018-07-13T13:48:14.626Z,33.60
2018-07-13T13:53:10.330Z,32.20
2018-07-13T13:55:38.229Z,32.50
2018-07-13T13:58:06.039Z,33.70
2018-07-13T14:00:33.973Z,33.60
2018-07-13T14:03:01.818Z,33.30
2018-07-13T14:05:30.452Z,34.40
2018-07-13T14:07:58.245Z,35.70
2018-07-13T14:10:26.177Z,37.50
2018-07-13T14:12:54.065Z,38.50
2018-07-13T14:15:21.941Z,39.70
2018-07-13T14:17:49.806Z,39.70
2018-07-13T14:20:17.699Z,40.40
2018-07-13T14:22:45.608Z,40.70
2018-07-13T14:25:13.457Z,40.90
2018-07-13T14:27:41.355Z,41.50
2018-07-13T14:30:09.243Z,41.60
2018-07-13T14:32:37.078Z,41.40
2018-07-13T14:35:05.264Z,41.90
2018-07-13T14:37:33.174Z,42.00
2018-07-13T14:40:01.162Z,42.20
2018-07-13T14:42:29.168Z,42.40
2018-07-13T14:44:57.082Z,43.30
2018-07-13T14:47:24.945Z,44.30
2018-07-13T14:49:52.841Z,45.30
2018-07-13T14:52:20.775Z,45.60
2018-07-13T14:54:48.685Z,45.80
2018-07-13T14:57:16.560Z,45.60
2018-07-13T14:59:44.589Z,47.10
2018-07-13T15:02:12.404Z,46.90
2018-07-13T15:04:40.365Z,45.10
2018-07-13T15:07:08.227Z,44.40
2018-07-13T15:09:36.126Z,44.60
2018-07-13T15:12:03.982Z,44.50
2018-07-13T15:14:31.781Z,44.50
2018-07-13T15:16:59.644Z,44.30
2018-07-13T15:19:27.517Z,44.70
2018-07-13T15:21:55.366Z,44.10
2018-07-13T15:24:24.073Z,45.00
2018-07-13T15:26:51.897Z,43.10
2018-07-13T15:29:19.810Z,43.60
2018-07-13T15:31:47.586Z,41.50
2018-07-13T15:34:15.529Z,41.30
2018-07-13T15:36:43.385Z,42.20
2018-07-13T15:39:11.260Z,41.80
2018-07-13T15:41:39.145Z,42.30
2018-07-13T15:44:06.972Z,42.70
2018-07-13T15:46:34.740Z,43.10
2018-07-13T15:51:30.407Z,43.60
2018-07-13T15:53:58.328Z,43.50
2018-07-13T15:56:26.189Z,43.50
2018-07-13T15:58:54.108Z,42.80
2018-07-13T16:01:21.942Z,43.20
2018-07-13T16:03:49.767Z,43.20
2018-07-13T16:06:17.602Z,42.80
2018-07-13T16:08:45.464Z,41.40
2018-07-13T16:11:13.317Z,40.90
2018-07-13T16:13:41.237Z,41.50
2018-07-13T16:16:09.095Z,41.70
2018-07-13T16:18:36.916Z,41.90
2018-07-13T16:21:04.761Z,41.90
2018-07-13T16:23:32.569Z,42.30
2018-07-13T16:26:00.447Z,43.00
2018-07-13T16:28:28.307Z,43.40
2018-07-13T16:30:56.183Z,43.50
2018-07-13T16:33:24.043Z,44.00
2018-07-13T16:35:51.944Z,43.90
2018-07-13T16:38:19.868Z,43.90
2018-07-13T16:40:47.774Z,44.30
2018-07-13T16:43:15.680Z,44.40
2018-07-13T16:45:43.529Z,44.90
2018-07-13T16:48:11.386Z,44.20
2018-07-13T16:50:39.293Z,45.30
2018-07-13T16:53:07.085Z,44.00
2018-07-13T16:55:35.029Z,43.90
2018-07-13T16:58:02.888Z,43.60
2018-07-13T17:00:30.726Z,43.80
2018-07-13T17:02:58.629Z,44.20
2018-07-13T17:05:26.489Z,43.50
2018-07-13T17:07:54.269Z,44.10
2018-07-13T17:10:22.051Z,44.80
2018-07-13T17:12:49.856Z,43.30
2018-07-13T17:15:17.655Z,43.80
2018-07-13T17:17:45.446Z,43.90
2018-07-13T17:20:13.345Z,43.20
2018-07-13T17:22:41.046Z,43.00
2018-07-13T17:25:08.876Z,43.10
2018-07-13T17:27:36.744Z,43.80
2018-07-13T17:30:05.873Z,43.50
2018-07-13T17:32:33.735Z,44.40
2018-07-13T17:35:01.493Z,44.70
2018-07-13T17:37:29.291Z,44.50
2018-07-13T17:42:24.856Z,45.10
2018-07-13T17:44:52.628Z,45.60
2018-07-13T17:47:20.419Z,45.60
2018-07-13T17:49:48.235Z,45.90
2018-07-13T17:52:16.091Z,46.70
2018-07-13T17:54:43.927Z,47.30
2018-07-13T17:57:11.744Z,48.40
2018-07-13T17:59:39.603Z,49.60
2018-07-13T18:02:07.463Z,50.10
2018-07-13T18:04:35.251Z,50.50
2018-07-13T18:07:03.026Z,51.30
2018-07-13T18:09:30.857Z,51.70
2018-07-13T18:11:58.735Z,52.10
2018-07-13T18:14:26.467Z,51.80
2018-07-13T18:16:54.276Z,52.90
2018-07-13T18:19:22.061Z,53.30
2018-07-13T18:21:49.811Z,53.10
2018-07-13T18:24:17.556Z,52.90
2018-07-13T18:26:45.339Z,52.90
2018-07-13T18:29:13.132Z,52.40
2018-07-13T18:31:41.123Z,52.00
2018-07-13T18:36:36.816Z,51.60
2018-07-13T18:39:05.203Z,51.80
2018-07-13T18:41:33.127Z,51.70
2018-07-13T18:44:00.992Z,51.40
2018-07-13T18:46:28.784Z,51.80
2018-07-13T18:48:56.584Z,52.20
2018-07-13T18:51:24.402Z,52.30
2018-07-13T18:53:52.171Z,52.90
2018-07-13T18:56:19.995Z,53.10
2018-07-13T18:58:47.919Z,53.80
2018-07-13T19:01:15.641Z,54.20
2018-07-13T19:03:43.460Z,54.40
2018-07-13T19:06:11.319Z,54.60
2018-07-13T19:08:39.430Z,55.30
2018-07-13T19:13:35.064Z,56.60
2018-07-13T19:16:02.912Z,57.00
2018-07-13T19:18:31.145Z,57.40
2018-07-13T19:20:58.875Z,58.10
2018-07-13T19:23:26.636Z,58.60
2018-07-13T19:25:54.427Z,59.50
2018-07-13T19:28:22.241Z,60.50
2018-07-13T19:30:50.037Z,60.90
2018-07-13T19:33:17.899Z,61.70
2018-07-13T19:35:45.728Z,62.10
2018-07-13T19:38:13.514Z,63.20
2018-07-13T19:40:41.355Z,65.10
2018-07-13T19:45:37.863Z,66.60
2018-07-13T19:48:05.947Z,67.10
2018-07-13T19:50:33.879Z,67.70
2018-07-13T19:53:01.639Z,67.40
2018-07-13T19:55:29.746Z,68.20
2018-07-13T19:57:58.271Z,69.00
2018-07-13T20:00:27.126Z,68.40
2018-07-13T20:02:55.004Z,69.20
2018-07-13T20:05:25.384Z,69.70
2018-07-13T20:07:55.533Z,69.50
2018-07-13T20:10:25.719Z,69.90
2018-07-13T20:12:53.547Z,69.80
2018-07-13T20:15:21.387Z,70.90
2018-07-13T20:17:49.170Z,70.80
2018-07-13T20:20:16.959Z,71.80
2018-07-13T20:22:44.815Z,72.80
2018-07-13T20:25:12.671Z,73.40
2018-07-13T20:27:40.439Z,74.30
2018-07-13T20:30:09.261Z,73.70
2018-07-13T20:32:37.112Z,74.10
2018-07-13T20:35:05.044Z,75.80
2018-07-13T20:37:32.912Z,76.00
2018-07-13T20:40:00.763Z,76.10
2018-07-13T20:42:29.026Z,77.30
2018-07-13T20:44:56.835Z,78.10
2018-07-13T20:47:24.683Z,78.60
2018-07-13T20:49:52.451Z,79.50
2018-07-13T20:52:20.280Z,80.20
2018-07-13T20:57:19.847Z,81.10
2018-07-13T20:59:48.501Z,80.40
2018-07-13T21:02:16.332Z,79.40
2018-07-13T21:04:44.159Z,79.80
2018-07-13T21:07:12.370Z,79.50
2018-07-13T21:09:40.127Z,79.00
2018-07-13T21:12:07.967Z,78.30
2018-07-13T21:14:35.772Z,78.60
2018-07-13T21:17:03.647Z,79.30
2018-07-13T21:19:31.421Z,78.70
2018-07-13T21:21:59.319Z,78.50
2018-07-13T21:24:27.155Z,77.60
2018-07-13T21:26:55.029Z,78.50
2018-07-13T21:29:23.067Z,78.50
2018-07-13T21:31:54.747Z,79.40
2018-07-13T21:34:22.916Z,79.10
2018-07-13T21:36:50.716Z,79.30
2018-07-13T21:39:18.522Z,79.90
2018-07-13T21:41:46.307Z,79.40
2018-07-13T21:44:14.258Z,80.20
2018-07-13T21:46:42.372Z,80.60
2018-07-13T21:49:12.760Z,81.70
2018-07-13T21:51:43.607Z,80.60
2018-07-13T21:54:11.444Z,80.20
2018-07-13T21:56:39.228Z,81.00
2018-07-13T21:59:07.721Z,80.80
2018-07-13T22:01:35.605Z,81.90
2018-07-13T22:04:03.528Z,80.90
2018-07-13T22:06:31.438Z,81.20
2018-07-13T22:08:59.207Z,81.80
2018-07-13T22:11:27.071Z,80.90
2018-07-13T22:13:54.887Z,81.30
2018-07-13T22:16:22.748Z,79.00
2018-07-13T22:18:50.552Z,81.50
2018-07-13T22:21:18.279Z,80.50
2018-07-13T22:23:46.136Z,81.00
2018-07-13T22:26:13.888Z,81.00
2018-07-13T22:28:41.720Z,80.60
2018-07-13T22:33:37.391Z,81.50
2018-07-13T22:36:05.280Z,80.90
2018-07-13T22:38:33.104Z,80.60
2018-07-13T22:41:00.911Z,81.60
2018-07-13T22:43:29.127Z,81.50
2018-07-13T22:45:57.132Z,81.70
2018-07-13T22:50:52.739Z,81.00
2018-07-13T22:53:20.520Z,80.20
2018-07-13T22:55:48.439Z,82.40
2018-07-13T22:58:16.211Z,82.70
2018-07-13T23:00:44.035Z,83.40
2018-07-13T23:03:11.944Z,83.40
2018-07-13T23:05:39.706Z,84.40
2018-07-13T23:08:07.504Z,83.60
2018-07-13T23:10:35.285Z,84.10
2018-07-13T23:13:03.147Z,84.40
2018-07-13T23:15:31.041Z,84.00
2018-07-13T23:17:58.738Z,83.50
2018-07-13T23:20:26.588Z,82.90
2018-07-13T23:22:54.440Z,83.10
2018-07-13T23:25:22.315Z,82.10
2018-07-13T23:27:50.125Z,82.80
2018-07-13T23:32:45.795Z,83.30
2018-07-13T23:35:13.619Z,83.70
2018-07-13T23:37:41.387Z,84.60
2018-07-13T23:40:09.227Z,84.50
2018-07-13T23:42:37.123Z,84.30
2018-07-13T23:45:04.932Z,83.90
2018-07-13T23:50:00.543Z,84.30
2018-07-13T23:52:28.375Z,84.90
2018-07-13T23:54:56.291Z,85.60
2018-07-13T23:57:24.083Z,82.70
2018-07-13T23:59:51.830Z,83.80
